Nageezi, NM (87037)

11:54 PM MDT on July 25, 2014 (GMT -0600)
Four Corners Regional (KFMN) Elev 5502 ft | 36.74 °N, 108.23 °W | Change Station

Current weather conditions updated 1 hour ago

Clear
Clear
82 °F
Feels Like 82 °F
N
4
Wind Variable Wind from West

Tomorrow is forecast to be Cooler than today.

Today
High -- | Low -- °F
--% Chance of Precip.
Yesterday
High -- | Low -- °F
Precip. -- in
6:12 AM 8:22 PM
Waning Crescent, 0% visible
Pressure 29.89 in
Visibility 10.0 miles
Clouds Clear
Dew Point 43 °F
Humidity 25%
Rainfall 0.00 in
Snow Depth Not available.
UV 0 out of 12
Pollen 4.50 out of 12
Air Quality Not available.
Flu Activity Not available.
METAR KFMN 260453Z AUTO 28003KT 10SM CLR 28/06 A3012 RMK AO2 SLP120 T02780061

More Conditions Fewer Conditions

Pressure 29.89 in
Visibility 10.0 miles
Clouds Clear
Dew Point 43 °F
Humidity 25%
Rainfall 0.00 in
Snow Depth Not available.
UV 0 out of 12
Pollen 4.50 out of 12
Air Quality Not available.
Flu Activity Not available.
METAR KFMN 260453Z AUTO 28003KT 10SM CLR 28/06 A3012 RMK AO2 SLP120 T02780061

More Conditions Fewer Conditions

10-Day Weather Forecast

Almanac

Astronomy

Jul. 25, 2014 Rise Set
Actual Time 6:12 AM MDT 8:22 PM MDT
Civil Twilight 5:43 AM MDT 8:51 PM MDT
Nautical Twilight 5:08 AM MDT 9:26 PM MDT
Astronomical Twilight 4:29 AM MDT 10:04 PM MDT
Moon 5:13 AM MDT (7/25) 7:22 PM MDT (7/25)
Length of Visible Light 15h 07m
Length of Day
14h 09m
Tomorrow will be 1m 32s shorter.
Waning Crescent, 0% of the Moon is Illuminated
Jul 26
Waning Crescent
Jul 26
New
Aug 3
First Quarter
Aug 10
Full
Aug 17
Last Quarter

Yesterday's Extremes

State Highs State Lows

Community

WunderPhotos

Upload Photos

1,737,523 photos uploaded!

Nearby

Snow Depth

Station Depth Elevation
Chamita 0 in 8400 ft
Bateman 0 in 9300 ft
Hopewell 0 in 10000 ft
Santa Fe 1 in 11445 ft
Gallegos Peak 0 in 9800 ft

Earthquake Activity

City Distance Mag. Time & Date
No recent earthquake activity has been reported nearby.
Minimum magnitude displayed is 2.5.

Coastal Water Temperatures

Place Temperature
No Stations Reporting

Nearby Weather Stations

There are no personal weather stations in this area.